Time;durP1;ratioP1;P1;durP2;ratioP2;P2;SDS_P1;SDS_P2;PMS_P1;PMS_P2;Temp;Humidity;BMP_temperature;BMP_pressure;BME280_temperature;BME280_humidity;BME280_pressure;Samples;Min_cycle;Max_cycle;Signal;HPM_P1;HPM_P2
2023/01/28 00:02:12;;;;;;;3.00;2.33;;;1.60;99.90;;;;;;5033490;28;20200;-65
2023/01/28 00:04:39;;;;;;;3.27;2.43;;;1.50;99.90;;;;;;5046522;28;20204;-65
2023/01/28 00:07:06;;;;;;;3.67;2.97;;;1.50;99.90;;;;;;5005884;28;20310;-65
2023/01/28 00:09:33;;;;;;;3.83;2.63;;;1.50;99.90;;;;;;5024413;28;20235;-64
2023/01/28 00:12:01;;;;;;;3.97;2.30;;;1.60;99.90;;;;;;5037641;28;20205;-65
2023/01/28 00:14:28;;;;;;;2.93;2.50;;;1.50;99.90;;;;;;5047313;28;20208;-64
2023/01/28 00:16:55;;;;;;;3.27;2.53;;;1.60;99.90;;;;;;5035323;28;20211;-65
2023/01/28 00:19:22;;;;;;;2.67;2.47;;;1.50;99.90;;;;;;5043882;28;21059;-65
2023/01/28 00:21:49;;;;;;;3.93;2.70;;;1.50;99.90;;;;;;5030291;28;20672;-65
2023/01/28 00:24:15;;;;;;;3.53;2.33;;;1.60;99.90;;;;;;5013091;28;20213;-65
2023/01/28 00:26:42;;;;;;;3.83;2.77;;;1.70;99.90;;;;;;5049714;28;20197;-64
2023/01/28 00:29:11;;;;;;;3.77;2.53;;;1.60;99.90;;;;;;5035045;28;20679;-65
2023/01/28 00:31:39;;;;;;;3.13;2.90;;;1.70;99.90;;;;;;5046641;28;20909;-65
2023/01/28 00:34:06;;;;;;;2.90;2.63;;;1.70;99.90;;;;;;5031534;28;20215;-65
2023/01/28 00:36:38;;;;;;;4.57;2.93;;;1.70;99.90;;;;;;5050872;28;20202;-65
2023/01/28 00:39:06;;;;;;;3.93;2.60;;;1.60;99.90;;;;;;4996842;28;20238;-65
2023/01/28 00:41:32;;;;;;;3.07;2.77;;;1.60;99.90;;;;;;5051136;28;20224;-65
2023/01/28 00:43:59;;;;;;;5.17;3.00;;;1.60;99.90;;;;;;5032316;28;20204;-65
2023/01/28 00:46:27;;;;;;;2.80;2.50;;;1.70;99.90;;;;;;5045857;28;20200;-65
2023/01/28 00:48:54;;;;;;;4.30;2.70;;;1.60;99.90;;;;;;5028873;28;20238;-65
2023/01/28 00:51:22;;;;;;;3.33;2.77;;;1.60;99.90;;;;;;5042501;28;22935;-66
2023/01/28 00:53:49;;;;;;;5.23;2.60;;;1.50;99.90;;;;;;5007091;28;20211;-64
2023/01/28 00:56:18;;;;;;;5.13;3.00;;;1.50;99.90;;;;;;5041269;28;20702;-64
2023/01/28 00:58:45;;;;;;;3.33;2.70;;;1.60;99.90;;;;;;5043675;28;20281;-64
2023/01/28 01:01:14;;;;;;;4.70;2.83;;;1.50;99.90;;;;;;5039174;28;20947;-64
2023/01/28 01:03:42;;;;;;;3.10;2.80;;;1.50;99.90;;;;;;5036909;28;20214;-64
2023/01/28 01:06:10;;;;;;;3.00;2.70;;;1.40;99.90;;;;;;5049277;28;20293;-65
2023/01/28 01:08:38;;;;;;;3.83;3.00;;;1.50;99.90;;;;;;5016856;28;20227;-65
2023/01/28 01:11:07;;;;;;;2.80;2.50;;;1.40;99.90;;;;;;5032339;28;20301;-65
2023/01/28 01:13:34;;;;;;;3.53;2.70;;;1.50;99.90;;;;;;5049095;28;20203;-65
2023/01/28 01:16:03;;;;;;;2.90;2.60;;;1.40;99.90;;;;;;5033999;28;20211;-65
2023/01/28 01:18:30;;;;;;;2.90;2.63;;;1.30;99.90;;;;;;5046395;28;20670;-64
2023/01/28 01:20:58;;;;;;;2.70;2.50;;;1.40;99.90;;;;;;5034424;28;20670;-64
2023/01/28 01:23:26;;;;;;;3.97;2.97;;;1.40;99.90;;;;;;5014527;28;20222;-65
2023/01/28 01:25:53;;;;;;;2.63;2.40;;;1.40;99.90;;;;;;5037545;28;20220;-65
2023/01/28 01:28:20;;;;;;;3.83;2.53;;;1.30;99.90;;;;;;5040168;28;20223;-64
2023/01/28 01:30:47;;;;;;;2.50;2.30;;;1.30;99.90;;;;;;5040895;28;20194;-65
2023/01/28 01:33:14;;;;;;;3.93;2.73;;;1.10;99.90;;;;;;5040107;28;20206;-64
2023/01/28 01:35:42;;;;;;;6.57;3.30;;;1.10;99.90;;;;;;5033410;28;20332;-64
2023/01/28 01:38:10;;;;;;;2.60;2.37;;;1.10;99.90;;;;;;5042801;28;20423;-65
2023/01/28 01:40:36;;;;;;;3.97;3.00;;;1.10;99.90;;;;;;5012215;28;20229;-64
2023/01/28 01:43:15;;;;;;;4.67;2.83;;;1.00;99.90;;;;;;5030095;28;20207;-64
2023/01/28 01:45:42;;;;;;;3.33;2.63;;;1.00;99.90;;;;;;5045412;28;20202;-64
2023/01/28 01:48:16;;;;;;;3.40;2.93;;;1.00;99.90;;;;;;5032739;28;20658;-64
2023/01/28 01:50:48;;;;;;;3.23;2.93;;;0.90;99.90;;;;;;5039031;28;20206;-64
2023/01/28 01:53:18;;;;;;;3.33;3.03;;;0.80;99.90;;;;;;5044030;28;20233;-64
2023/01/28 01:55:48;;;;;;;4.63;2.80;;;0.80;99.90;;;;;;5011912;28;20206;-64
2023/01/28 01:58:18;;;;;;;2.93;2.70;;;0.80;99.90;;;;;;5032060;28;20579;-64
2023/01/28 02:00:46;;;;;;;3.17;2.87;;;0.80;99.90;;;;;;5039759;28;22435;-64
2023/01/28 02:03:13;;;;;;;4.13;2.97;;;0.70;99.90;;;;;;5026531;28;20206;-65
2023/01/28 02:05:40;;;;;;;5.80;3.27;;;0.60;99.90;;;;;;5022959;28;20206;-64
2023/01/28 02:08:24;;;;;;;5.13;3.10;;;0.60;99.90;;;;;;5041448;28;20207;-64
2023/01/28 02:10:55;;;;;;;3.10;2.80;;;0.50;99.90;;;;;;5012670;28;20377;-64
2023/01/28 02:13:25;;;;;;;3.13;2.80;;;0.50;99.90;;;;;;5037231;28;20581;-65
2023/01/28 02:15:52;;;;;;;5.57;2.90;;;0.50;99.90;;;;;;5041319;28;20781;-64
2023/01/28 02:18:19;;;;;;;5.10;3.30;;;0.50;99.90;;;;;;5036817;28;20211;-64
2023/01/28 02:21:04;;;;;;;9.30;3.20;;;0.40;99.90;;;;;;5025427;28;20200;-65
2023/01/28 02:23:50;;;;;;;4.27;3.00;;;0.40;99.90;;;;;;5044634;28;20231;-64
2023/01/28 02:26:50;;;;;;;4.20;2.90;;;0.40;99.90;;;;;;5004919;28;20228;-65
2023/01/28 02:29:24;;;;;;;4.20;3.17;;;0.40;99.90;;;;;;5029782;28;20229;-64
2023/01/28 02:31:54;;;;;;;4.10;3.70;;;0.40;99.90;;;;;;5045202;28;20207;-65
2023/01/28 02:34:27;;;;;;;6.53;3.57;;;0.30;99.90;;;;;;5025737;28;20211;-64
2023/01/28 02:36:58;;;;;;;6.70;3.73;;;0.40;99.90;;;;;;5031765;28;20227;-64
2023/01/28 02:39:28;;;;;;;3.97;3.50;;;0.40;99.90;;;;;;5046285;28;20230;-64
2023/01/28 02:41:59;;;;;;;4.30;3.23;;;0.40;99.90;;;;;;5012171;28;20208;-64
2023/01/28 02:44:28;;;;;;;4.40;3.63;;;0.40;99.90;;;;;;5027855;28;20204;-65
2023/01/28 02:49:46;;;;;;;4.67;3.53;;;0.40;99.90;;;;;;5003423;28;20229;-64
2023/01/28 02:53:39;;;;;;;5.07;3.70;;;0.40;99.90;;;;;;5030981;28;20203;-64
2023/01/28 02:55:17;;;;;;;4.10;3.50;;;0.40;99.90;;;;;;5044282;28;20392;-64
2023/01/28 02:57:53;;;;;;;6.87;3.93;;;0.30;99.90;;;;;;5013691;28;20207;-64
2023/01/28 03:00:27;;;;;;;4.27;3.87;;;0.30;99.90;;;;;;5034904;28;20305;-64
2023/01/28 03:03:02;;;;;;;5.10;3.63;;;0.20;99.90;;;;;;5035087;28;21003;-64
2023/01/28 03:05:31;;;;;;;5.77;3.33;;;0.30;99.90;;;;;;5033897;28;20212;-64
2023/01/28 03:07:58;;;;;;;6.17;3.37;;;0.30;99.90;;;;;;5030107;28;20203;-64
2023/01/28 03:10:27;;;;;;;4.07;3.30;;;0.30;99.90;;;;;;5039912;28;20237;-64
2023/01/28 03:38:19;;;;;;;3.53;3.23;;;0.10;99.90;;;;;;5039529;28;20266;-64
2023/01/28 03:40:51;;;;;;;3.80;3.17;;;0.30;99.90;;;;;;5041936;28;20683;-64
2023/01/28 03:43:18;;;;;;;7.57;3.70;;;0.20;99.90;;;;;;5004204;28;20215;-64
2023/01/28 03:45:50;;;;;;;4.73;3.80;;;0.20;99.90;;;;;;5026426;28;20210;-65
2023/01/28 03:48:18;;;;;;;7.30;4.10;;;0.10;99.90;;;;;;5035333;28;20785;-64
2023/01/28 03:50:45;;;;;;;6.10;4.10;;;0.10;99.90;;;;;;5026527;28;20222;-65
2023/01/28 03:53:12;;;;;;;4.80;4.30;;;0.20;99.90;;;;;;5032076;28;20202;-65
2023/01/28 03:55:39;;;;;;;6.03;4.00;;;0.20;99.90;;;;;;5035775;28;20211;-65
2023/01/28 03:58:06;;;;;;;6.03;4.17;;;0.20;99.90;;;;;;5009592;28;20206;-65
2023/01/28 04:00:36;;;;;;;7.47;4.63;;;0.30;99.90;;;;;;5028891;28;20231;-64
2023/01/28 04:03:03;;;;;;;4.30;3.90;;;0.40;99.90;;;;;;5047861;28;20687;-63
2023/01/28 04:05:32;;;;;;;5.60;4.27;;;0.40;99.90;;;;;;5033009;28;21630;-65
2023/01/28 04:07:58;;;;;;;4.77;4.37;;;0.40;99.90;;;;;;5028568;28;20227;-64
2023/01/28 04:10:25;;;;;;;4.20;3.60;;;0.40;99.90;;;;;;5019929;28;20232;-64
2023/01/28 04:12:53;;;;;;;5.03;3.63;;;0.40;99.90;;;;;;5030693;28;20225;-64
2023/01/28 04:15:20;;;;;;;7.23;4.63;;;0.30;99.90;;;;;;5012291;28;20211;-64
2023/01/28 04:17:48;;;;;;;5.77;4.20;;;0.30;99.90;;;;;;5033061;28;20212;-64
2023/01/28 04:20:15;;;;;;;6.20;4.53;;;0.40;99.90;;;;;;5044255;28;20708;-64
2023/01/28 04:22:43;;;;;;;4.93;4.30;;;0.40;99.90;;;;;;5032546;28;20199;-64
2023/01/28 04:25:10;;;;;;;5.80;4.33;;;0.50;99.90;;;;;;5034710;28;20211;-64
2023/01/28 04:27:37;;;;;;;5.93;4.20;;;0.50;99.90;;;;;;5048299;28;20245;-64
2023/01/28 04:30:04;;;;;;;5.33;4.10;;;0.40;99.90;;;;;;4999595;28;20239;-64
2023/01/28 04:32:31;;;;;;;7.30;3.83;;;0.40;99.90;;;;;;5035143;28;20216;-64
2023/01/28 04:34:57;;;;;;;7.97;4.07;;;0.50;99.90;;;;;;5035568;28;20197;-64
2023/01/28 04:37:24;;;;;;;5.10;4.60;;;0.50;99.90;;;;;;5030670;28;20213;-64
2023/01/28 04:39:52;;;;;;;7.47;4.77;;;0.60;99.90;;;;;;5035462;28;20227;-65
2023/01/28 04:42:19;;;;;;;7.63;4.57;;;0.50;99.90;;;;;;5026835;28;20211;-64
2023/01/28 04:44:46;;;;;;;6.47;4.80;;;0.40;99.90;;;;;;4999407;28;20649;-64
2023/01/28 04:47:13;;;;;;;5.00;4.47;;;0.50;99.90;;;;;;5031559;28;20204;-64
2023/01/28 04:49:39;;;;;;;6.10;4.43;;;0.50;99.90;;;;;;5045315;28;21448;-64
2023/01/28 04:52:06;;;;;;;7.27;4.43;;;0.50;99.90;;;;;;5034093;28;20702;-64
2023/01/28 04:54:33;;;;;;;9.63;4.50;;;0.60;99.90;;;;;;5047651;28;20787;-64
2023/01/28 04:57:01;;;;;;;6.70;4.57;;;0.60;99.90;;;;;;5030045;28;20212;-64
2023/01/28 04:59:28;;;;;;;6.50;4.20;;;0.50;99.90;;;;;;5028374;28;20210;-64
2023/01/28 05:01:55;;;;;;;7.80;4.10;;;0.50;99.90;;;;;;5027144;28;20215;-64
2023/01/28 05:04:22;;;;;;;7.40;4.60;;;0.50;99.90;;;;;;5038168;28;20196;-64
2023/01/28 05:06:48;;;;;;;8.43;5.00;;;0.50;99.90;;;;;;5045290;28;20205;-64
2023/01/28 05:09:15;;;;;;;5.73;4.47;;;0.50;99.90;;;;;;5030942;28;20213;-64
2023/01/28 05:11:42;;;;;;;7.20;4.77;;;0.40;99.90;;;;;;5028008;28;20897;-64
2023/01/28 05:14:10;;;;;;;6.20;4.80;;;0.30;99.90;;;;;;5028255;28;20213;-64
2023/01/28 05:16:37;;;;;;;5.60;4.30;;;0.30;99.90;;;;;;5013839;28;20205;-64
2023/01/28 05:19:04;;;;;;;6.57;5.13;;;0.40;99.90;;;;;;5030762;28;20810;-64
2023/01/28 05:21:31;;;;;;;5.13;4.30;;;0.30;99.90;;;;;;5050751;28;20194;-64
2023/01/28 05:23:57;;;;;;;6.37;4.93;;;0.20;99.90;;;;;;5036929;28;20205;-64
2023/01/28 05:26:24;;;;;;;7.87;4.93;;;0.10;99.90;;;;;;5038561;28;20207;-63
2023/01/28 05:28:51;;;;;;;7.20;4.97;;;0.10;99.90;;;;;;5020423;28;20235;-64
2023/01/28 05:31:19;;;;;;;7.80;5.57;;;0.00;99.90;;;;;;5019745;28;20241;-64
2023/01/28 05:33:46;;;;;;;7.07;5.07;;;-0.10;99.90;;;;;;5024554;28;20209;-64
2023/01/28 05:36:13;;;;;;;7.17;4.87;;;-0.20;99.90;;;;;;5041541;28;20534;-64
2023/01/28 05:38:39;;;;;;;4.73;4.20;;;-0.30;99.90;;;;;;5023030;28;20730;-64
2023/01/28 05:41:06;;;;;;;7.23;4.27;;;-0.40;99.90;;;;;;5034455;28;20234;-63
2023/01/28 05:43:33;;;;;;;4.70;4.20;;;-0.30;99.90;;;;;;5027861;28;20218;-64
2023/01/28 05:46:00;;;;;;;5.00;4.40;;;-0.30;99.90;;;;;;5029625;28;20206;-63
2023/01/28 05:48:28;;;;;;;4.83;4.17;;;-0.30;99.90;;;;;;5000703;28;20215;-64
2023/01/28 05:50:55;;;;;;;5.43;4.10;;;-0.40;99.90;;;;;;5026081;28;20229;-64
2023/01/28 05:53:21;;;;;;;4.93;4.20;;;-0.40;99.90;;;;;;5030621;28;20208;-64
2023/01/28 05:55:49;;;;;;;7.53;4.57;;;-0.40;99.90;;;;;;5042805;28;20213;-64
2023/01/28 05:58:16;;;;;;;7.37;4.63;;;-0.30;99.90;;;;;;5036433;28;20679;-64
2023/01/28 06:00:43;;;;;;;5.37;4.37;;;-0.30;99.90;;;;;;5020388;28;20210;-64
2023/01/28 06:03:09;;;;;;;7.00;4.87;;;-0.30;99.90;;;;;;5010175;28;22096;-64
2023/01/28 06:05:37;;;;;;;6.07;4.50;;;-0.30;99.90;;;;;;5032354;28;20206;-64
2023/01/28 06:08:05;;;;;;;9.37;4.47;;;-0.30;99.90;;;;;;5050532;28;20946;-63
2023/01/28 06:10:32;;;;;;;6.70;4.63;;;-0.40;99.90;;;;;;5029785;28;21674;-64
2023/01/28 06:12:59;;;;;;;8.87;4.27;;;-0.40;99.90;;;;;;5043524;28;20203;-64
2023/01/28 06:15:26;;;;;;;7.23;4.50;;;-0.50;99.90;;;;;;5034545;28;20209;-64
2023/01/28 06:17:53;;;;;;;5.53;4.10;;;-0.50;99.90;;;;;;5000619;28;20202;-64
2023/01/28 06:20:20;;;;;;;5.63;4.70;;;-0.60;99.90;;;;;;5037051;28;20196;-64
2023/01/28 06:22:50;;;;;;;9.07;4.80;;;-0.60;99.90;;;;;;5049544;28;20209;-64
2023/01/28 06:25:17;;;;;;;7.17;4.70;;;-0.60;99.90;;;;;;5040758;28;20206;-64
2023/01/28 06:27:45;;;;;;;10.90;4.57;;;-0.60;99.90;;;;;;5038728;28;20207;-64
2023/01/28 06:30:12;;;;;;;7.93;4.93;;;-0.70;99.90;;;;;;5024739;28;20230;-64
2023/01/28 06:32:39;;;;;;;7.37;4.27;;;-0.80;99.90;;;;;;5005530;28;20213;-64
2023/01/28 06:35:07;;;;;;;8.57;4.90;;;-0.70;99.90;;;;;;5039418;28;20909;-64
2023/01/28 06:37:35;;;;;;;6.03;4.67;;;-0.60;99.90;;;;;;5030373;28;20197;-63
2023/01/28 06:40:03;;;;;;;8.93;5.50;;;-0.80;99.90;;;;;;5043525;28;20227;-64
2023/01/28 06:42:29;;;;;;;5.43;4.67;;;-0.70;99.90;;;;;;5032918;28;20213;-64
2023/01/28 06:44:56;;;;;;;5.30;4.50;;;-0.80;99.90;;;;;;5022762;28;20212;-64
2023/01/28 06:47:23;;;;;;;5.10;3.93;;;-0.70;99.90;;;;;;5020778;28;20213;-64
2023/01/28 06:49:50;;;;;;;9.93;5.10;;;-0.70;99.90;;;;;;5008726;28;20708;-64
2023/01/28 06:52:16;;;;;;;7.23;5.30;;;-0.70;99.90;;;;;;5033632;28;20628;-64
2023/01/28 06:54:43;;;;;;;8.70;5.33;;;-0.80;99.90;;;;;;5039779;28;20203;-64
2023/01/28 06:57:11;;;;;;;6.63;5.53;;;-0.80;99.90;;;;;;5028806;28;20211;-64
2023/01/28 06:59:38;;;;;;;8.53;6.20;;;-0.90;99.90;;;;;;5032559;28;20202;-64
2023/01/28 07:02:05;;;;;;;7.53;5.73;;;-0.80;99.90;;;;;;5024002;28;20272;-64
2023/01/28 07:04:32;;;;;;;9.13;5.73;;;-0.90;99.90;;;;;;5016049;28;20207;-64
2023/01/28 07:06:59;;;;;;;7.90;5.63;;;-0.80;99.90;;;;;;5016436;28;20216;-64
2023/01/28 07:09:26;;;;;;;8.93;6.17;;;-0.70;99.90;;;;;;5039937;28;20203;-63
2023/01/28 07:11:52;;;;;;;10.20;5.90;;;-0.60;99.90;;;;;;5032467;28;20518;-64
2023/01/28 07:14:20;;;;;;;9.33;6.47;;;-0.60;99.90;;;;;;5033502;28;20209;-64
2023/01/28 07:16:47;;;;;;;8.37;6.73;;;-0.70;99.90;;;;;;5017951;28;20233;-63
2023/01/28 07:19:14;;;;;;;10.47;6.83;;;-0.50;99.90;;;;;;5029406;28;20214;-63
2023/01/28 07:21:41;;;;;;;11.57;6.90;;;-0.50;99.90;;;;;;5001222;28;20219;-64
2023/01/28 07:24:08;;;;;;;10.20;6.47;;;-0.50;99.90;;;;;;5030980;28;20192;-64
2023/01/28 07:26:34;;;;;;;8.90;6.97;;;-0.50;99.90;;;;;;5041779;28;20202;-63
2023/01/28 07:29:01;;;;;;;10.73;6.50;;;0.50;99.90;;;;;;5032229;28;20218;-64
2023/01/28 07:31:29;;;;;;;9.50;6.27;;;-0.40;99.90;;;;;;5035009;28;20300;-63
2023/01/28 07:33:56;;;;;;;10.57;6.87;;;-0.50;99.90;;;;;;5013721;28;20230;-63
2023/01/28 07:36:23;;;;;;;11.07;6.80;;;-0.50;99.90;;;;;;4979219;28;20222;-63
2023/01/28 07:38:50;;;;;;;17.20;7.17;;;-0.50;99.90;;;;;;4998392;28;20740;-64
2023/01/28 07:41:17;;;;;;;12.43;7.00;;;-0.60;99.90;;;;;;5030441;28;20195;-63
2023/01/28 07:43:43;;;;;;;11.07;6.63;;;-0.70;99.90;;;;;;5009264;28;20224;-64
2023/01/28 07:46:10;;;;;;;12.97;7.37;;;-0.70;99.90;;;;;;5028302;28;20240;-64
2023/01/28 07:48:38;;;;;;;11.17;7.17;;;-0.70;99.90;;;;;;5029277;28;20292;-64
2023/01/28 07:51:05;;;;;;;10.07;7.57;;;-0.70;99.90;;;;;;5020171;28;20234;-65
2023/01/28 07:53:32;;;;;;;11.40;6.17;;;-0.70;99.90;;;;;;5027008;28;20756;-64
2023/01/28 07:56:00;;;;;;;11.87;6.83;;;-0.70;99.90;;;;;;5032234;28;20672;-64
2023/01/28 07:58:27;;;;;;;8.70;6.63;;;-0.60;99.90;;;;;;5030148;28;20204;-64
2023/01/28 08:00:57;;;;;;;10.63;6.90;;;-0.60;99.90;;;;;;5018875;28;20230;-64
2023/01/28 08:03:24;;;;;;;9.70;6.60;;;-0.60;99.90;;;;;;5019504;28;20222;-63
2023/01/28 08:05:53;;;;;;;8.90;6.43;;;-0.60;99.90;;;;;;5018162;28;20811;-64
2023/01/28 08:08:20;;;;;;;7.37;5.63;;;-0.50;99.90;;;;;;4986203;28;20209;-63
2023/01/28 08:10:47;;;;;;;9.63;6.43;;;-0.60;99.90;;;;;;5026117;28;20241;-64
2023/01/28 08:13:15;;;;;;;8.73;5.97;;;-0.60;99.90;;;;;;5026818;28;20213;-63
2023/01/28 08:15:42;;;;;;;9.27;6.63;;;-0.60;99.90;;;;;;5025161;28;20206;-64
2023/01/28 08:18:12;;;;;;;7.50;5.57;;;-0.50;99.90;;;;;;5024732;28;20229;-64
2023/01/28 08:20:39;;;;;;;10.07;6.53;;;-0.50;99.90;;;;;;4996761;28;20271;-63
2023/01/28 08:23:09;;;;;;;12.07;6.30;;;-0.40;99.90;;;;;;4991194;28;20306;-64
2023/01/28 08:25:36;;;;;;;8.70;6.23;;;-0.40;99.90;;;;;;5014047;28;20230;-64
2023/01/28 08:28:03;;;;;;;8.33;5.97;;;-0.50;99.90;;;;;;5017022;28;20643;-64
2023/01/28 08:30:30;;;;;;;6.63;5.53;;;-0.50;99.90;;;;;;5028491;28;20240;-64
2023/01/28 08:32:57;;;;;;;8.13;5.73;;;-0.50;99.90;;;;;;5030972;28;20226;-64
2023/01/28 08:35:24;;;;;;;10.93;6.93;;;-0.30;99.90;;;;;;5024665;28;20210;-64
2023/01/28 08:37:52;;;;;;;9.50;6.67;;;-0.40;99.90;;;;;;4996239;28;20227;-64
2023/01/28 08:40:20;;;;;;;12.53;6.90;;;-0.40;99.90;;;;;;5007945;28;20908;-64
2023/01/28 08:42:48;;;;;;;15.63;8.23;;;-0.30;99.90;;;;;;5036772;28;20203;-64
2023/01/28 08:45:15;;;;;;;11.93;7.43;;;-0.10;99.90;;;;;;5025271;28;21098;-64
2023/01/28 08:47:48;;;;;;;11.57;8.27;;;-0.10;99.90;;;;;;5027500;28;20248;-63
2023/01/28 08:50:16;;;;;;;13.33;7.90;;;-0.10;99.90;;;;;;5029710;28;20244;-63
2023/01/28 08:52:43;;;;;;;12.90;8.70;;;0.00;99.90;;;;;;5016325;28;20215;-63
2023/01/28 08:55:10;;;;;;;29.13;9.67;;;0.00;99.90;;;;;;5007968;28;20297;-64
2023/01/28 08:57:39;;;;;;;18.57;9.10;;;0.10;99.90;;;;;;5032171;28;20207;-64
2023/01/28 09:00:07;;;;;;;12.90;8.20;;;0.00;99.90;;;;;;5018516;28;25807;-64
2023/01/28 09:02:34;;;;;;;14.17;8.73;;;-0.10;99.90;;;;;;4993391;28;20331;-64
2023/01/28 09:05:01;;;;;;;12.23;8.43;;;-0.10;99.90;;;;;;5007652;28;24856;-64
2023/01/28 09:07:28;;;;;;;11.70;8.43;;;0.00;99.90;;;;;;5007084;28;20240;-64
2023/01/28 09:09:54;;;;;;;12.47;8.97;;;0.00;99.90;;;;;;4981706;28;27504;-64
2023/01/28 09:12:21;;;;;;;14.47;8.73;;;0.10;99.90;;;;;;5021023;28;20241;-64
2023/01/28 09:14:50;;;;;;;14.30;9.07;;;0.10;99.90;;;;;;5019335;28;20206;-64
2023/01/28 09:17:17;;;;;;;10.97;8.30;;;0.20;99.90;;;;;;5027394;28;20574;-64
2023/01/28 09:19:44;;;;;;;13.37;8.63;;;0.30;99.90;;;;;;4991984;28;20227;-64
2023/01/28 09:22:11;;;;;;;19.93;11.03;;;0.50;99.90;;;;;;5004619;28;21024;-64
2023/01/28 09:24:38;;;;;;;18.67;10.90;;;0.50;99.90;;;;;;5025503;28;20221;-64
2023/01/28 09:27:04;;;;;;;20.60;10.67;;;0.60;99.90;;;;;;4976915;28;20216;-64
2023/01/28 09:29:33;;;;;;;14.20;10.00;;;0.60;99.90;;;;;;5015624;28;20727;-64
2023/01/28 09:32:01;;;;;;;17.67;11.07;;;0.60;99.90;;;;;;5032502;28;20260;-64
2023/01/28 09:34:28;;;;;;;18.40;11.30;;;0.70;99.90;;;;;;4989415;28;20233;-64
2023/01/28 09:36:55;;;;;;;19.73;11.57;;;0.80;99.90;;;;;;5023135;28;20255;-63
2023/01/28 09:39:24;;;;;;;18.67;10.90;;;0.70;99.90;;;;;;5005419;28;20611;-64
2023/01/28 09:42:05;;;;;;;17.50;11.33;;;0.80;99.90;;;;;;4993443;28;20304;-63
2023/01/28 09:44:48;;;;;;;18.00;11.53;;;0.80;99.90;;;;;;5014809;28;23978;-63
2023/01/28 09:47:23;;;;;;;17.53;11.37;;;0.80;99.90;;;;;;5014843;28;20203;-63
2023/01/28 09:49:53;;;;;;;17.53;11.27;;;0.90;99.90;;;;;;5012282;28;20237;-63
2023/01/28 09:52:24;;;;;;;19.73;12.57;;;0.90;99.90;;;;;;5017556;28;20233;-63
2023/01/28 09:54:53;;;;;;;17.20;10.53;;;0.90;99.90;;;;;;5010634;28;20210;-63
2023/01/28 09:57:24;;;;;;;20.30;12.83;;;1.00;99.90;;;;;;4985221;28;20231;-63
2023/01/28 09:59:51;;;;;;;19.77;10.57;;;1.10;99.90;;;;;;4999331;28;20228;-63
2023/01/28 10:02:36;;;;;;;14.10;9.70;;;1.10;99.90;;;;;;5008480;28;20795;-63
2023/01/28 10:05:14;;;;;;;19.23;10.07;;;1.10;99.90;;;;;;5025990;28;20228;-63
2023/01/28 10:07:48;;;;;;;16.50;9.23;;;1.20;99.90;;;;;;5020683;28;21011;-64
2023/01/28 10:10:19;;;;;;;14.53;8.93;;;1.20;99.90;;;;;;5040192;23;20261;-63
2023/01/28 10:13:01;;;;;;;13.67;8.60;;;1.10;99.90;;;;;;5003334;28;20495;-64
2023/01/28 10:16:02;;;;;;;14.47;9.17;;;1.20;99.90;;;;;;5025074;27;20225;-64
2023/01/28 10:18:36;;;;;;;13.40;8.90;;;1.20;99.90;;;;;;5027726;28;20229;-64
2023/01/28 10:21:08;;;;;;;15.63;8.93;;;1.30;99.90;;;;;;5048233;28;20217;-64
2023/01/28 10:23:45;;;;;;;12.23;8.00;;;1.30;99.90;;;;;;5033575;28;20587;-64
2023/01/28 10:26:21;;;;;;;12.80;9.00;;;1.30;99.90;;;;;;5045262;28;20210;-63
2023/01/28 10:28:55;;;;;;;13.13;9.40;;;1.40;99.90;;;;;;5016351;28;20209;-64
2023/01/28 10:31:23;;;;;;;13.03;8.50;;;1.50;99.90;;;;;;5043859;28;20236;-64
2023/01/28 10:33:51;;;;;;;15.13;9.37;;;1.60;99.90;;;;;;5033407;28;20234;-63
2023/01/28 10:36:18;;;;;;;12.87;8.27;;;2.10;99.90;;;;;;5047973;28;20715;-64
2023/01/28 10:38:45;;;;;;;18.47;10.03;;;1.70;99.90;;;;;;5060134;28;20708;-64
2023/01/28 10:41:19;;;;;;;14.97;8.97;;;1.80;99.90;;;;;;5044785;27;20209;-65
2023/01/28 10:43:48;;;;;;;13.90;8.37;;;1.80;99.90;;;;;;5032812;28;20235;-64
2023/01/28 10:46:19;;;;;;;13.27;8.40;;;1.80;99.90;;;;;;5045197;28;20676;-64
2023/01/28 10:48:53;;;;;;;11.77;8.13;;;1.80;99.90;;;;;;5056269;28;20209;-64
2023/01/28 10:51:31;;;;;;;12.63;8.00;;;1.80;99.90;;;;;;5033771;28;21062;-64
2023/01/28 10:53:58;;;;;;;13.97;8.90;;;1.80;99.90;;;;;;5071574;27;20336;-64
2023/01/28 10:56:27;;;;;;;12.90;9.13;;;1.80;99.90;;;;;;5049845;27;20704;-64
2023/01/28 10:59:00;;;;;;;15.80;8.80;;;1.80;99.90;;;;;;5060130;27;20221;-65
2023/01/28 11:01:38;;;;;;;12.00;8.57;;;1.70;99.90;;;;;;5040895;28;20230;-64
2023/01/28 11:04:06;;;;;;;15.53;10.33;;;1.70;99.90;;;;;;5055365;28;20231;-64
2023/01/28 11:06:34;;;;;;;16.70;9.43;;;1.80;99.90;;;;;;5046903;28;20241;-65
2023/01/28 11:09:01;;;;;;;13.97;9.27;;;1.80;99.90;;;;;;5083184;27;20235;-64
2023/01/28 11:11:29;;;;;;;14.70;9.63;;;1.90;99.90;;;;;;5062757;27;20233;-64
2023/01/28 11:13:57;;;;;;;19.47;10.33;;;1.90;99.90;;;;;;5072176;27;20272;-64
2023/01/28 11:16:25;;;;;;;14.97;10.20;;;2.00;99.90;;;;;;5053510;27;20234;-65
2023/01/28 11:18:54;;;;;;;18.30;9.67;;;2.00;99.90;;;;;;5080962;27;20389;-65
2023/01/28 11:21:22;;;;;;;16.17;8.47;;;2.10;99.90;;;;;;5076763;27;20266;-64
2023/01/28 11:23:54;;;;;;;14.83;9.60;;;2.10;99.90;;;;;;5080907;27;20295;-65
2023/01/28 11:26:24;;;;;;;12.87;8.53;;;2.20;99.90;;;;;;5056871;27;20222;-65
2023/01/28 11:28:52;;;;;;;13.77;8.53;;;2.20;99.90;;;;;;5089242;27;20223;-64
2023/01/28 11:31:22;;;;;;;13.03;9.00;;;2.20;99.90;;;;;;5057764;27;20207;-64
2023/01/28 11:33:52;;;;;;;12.80;9.07;;;2.20;99.90;;;;;;5066116;27;20203;-65
2023/01/28 11:36:21;;;;;;;13.73;9.27;;;2.20;99.90;;;;;;5083935;27;20585;-64
2023/01/28 11:38:51;;;;;;;12.87;9.20;;;2.30;99.90;;;;;;5084108;27;20207;-65
2023/01/28 11:41:23;;;;;;;14.47;9.63;;;2.40;99.90;;;;;;5091922;27;20213;-64
2023/01/28 11:43:50;;;;;;;13.33;9.20;;;2.50;99.90;;;;;;5078362;27;20551;-65
2023/01/28 11:46:47;;;;;;;15.00;8.60;;;2.60;99.90;;;;;;5065931;27;20706;-65
2023/01/28 11:49:24;;;;;;;12.27;8.57;;;2.60;99.90;;;;;;5071731;27;20230;-66
2023/01/28 11:51:59;;;;;;;13.17;7.93;;;2.60;99.90;;;;;;5072647;27;20218;-65
2023/01/28 11:54:38;;;;;;;17.33;8.53;;;2.60;99.90;;;;;;5080339;28;20219;-65
2023/01/28 11:57:17;;;;;;;12.00;7.87;;;2.70;99.90;;;;;;5088370;28;20585;-64
2023/01/28 12:00:17;;;;;;;12.70;8.10;;;2.70;99.90;;;;;;5085862;27;20685;-64
2023/01/28 12:02:51;;;;;;;12.53;7.63;;;2.70;99.90;;;;;;5049380;27;20219;-65
2023/01/28 12:05:40;;;;;;;20.30;8.43;;;2.70;99.90;;;;;;5071524;27;20299;-65
2023/01/28 12:08:12;;;;;;;12.17;7.37;;;2.70;99.90;;;;;;5083210;27;20223;-63
2023/01/28 12:10:50;;;;;;;15.63;8.00;;;2.70;99.90;;;;;;5083245;27;20198;-65
2023/01/28 12:13:33;;;;;;;12.47;7.30;;;2.80;99.90;;;;;;5079545;27;20233;-64
2023/01/28 12:16:26;;;;;;;11.70;7.93;;;2.80;99.90;;;;;;5088022;27;20227;-64
2023/01/28 12:19:10;;;;;;;12.97;7.03;;;2.80;99.90;;;;;;5040142;27;20333;-64
2023/01/28 12:21:50;;;;;;;11.50;7.77;;;2.80;99.90;;;;;;5074028;28;20239;-64
2023/01/28 12:24:33;;;;;;;13.33;6.53;;;2.80;99.90;;;;;;5091484;27;20196;-64
2023/01/28 12:27:07;;;;;;;9.17;7.13;;;2.90;99.90;;;;;;5077169;27;20564;-64
2023/01/28 12:29:40;;;;;;;9.90;7.07;;;2.90;99.90;;;;;;5082926;27;20204;-65
2023/01/28 12:32:21;;;;;;;10.80;7.20;;;2.90;99.90;;;;;;5062500;27;20229;-64
2023/01/28 12:35:19;;;;;;;12.47;7.10;;;2.90;99.90;;;;;;5082889;27;20203;-64
2023/01/28 12:38:07;;;;;;;9.43;5.80;;;2.90;99.90;;;;;;5071572;28;20203;-64
2023/01/28 12:40:55;;;;;;;10.17;6.73;;;2.90;99.90;;;;;;5081069;28;20200;-64
2023/01/28 12:43:36;;;;;;;8.50;6.10;;;2.90;99.90;;;;;;5088505;27;20267;-64
2023/01/28 12:46:09;;;;;;;12.50;6.70;;;2.90;99.90;;;;;;5082888;27;20203;-65
2023/01/28 12:48:42;;;;;;;8.60;6.40;;;3.00;99.90;;;;;;5065356;27;20207;-64
2023/01/28 12:51:15;;;;;;;11.13;6.13;;;3.00;99.90;;;;;;5069186;27;20202;-63
2023/01/28 12:53:47;;;;;;;8.70;6.13;;;3.00;99.90;;;;;;5049338;27;20261;-64
2023/01/28 12:56:17;;;;;;;10.03;6.50;;;3.10;99.90;;;;;;5067691;27;20259;-64
2023/01/28 12:58:52;;;;;;;8.93;7.00;;;3.10;99.90;;;;;;5056836;27;20218;-64
2023/01/28 13:01:24;;;;;;;9.97;6.73;;;3.00;99.90;;;;;;5073458;27;20202;-64
2023/01/28 13:03:56;;;;;;;10.03;6.17;;;3.00;99.90;;;;;;5050772;28;20214;-65
2023/01/28 13:06:30;;;;;;;10.37;6.53;;;3.00;99.90;;;;;;5057131;27;23069;-64
2023/01/28 13:09:00;;;;;;;10.87;6.33;;;3.00;99.90;;;;;;5079746;27;20373;-64
2023/01/28 13:11:33;;;;;;;8.53;6.27;;;2.90;99.90;;;;;;5068729;27;20198;-64
2023/01/28 13:14:03;;;;;;;8.87;6.60;;;2.90;99.90;;;;;;5064319;27;20311;-66
2023/01/28 13:16:30;;;;;;;8.90;6.20;;;2.90;99.90;;;;;;5081907;27;21210;-65
2023/01/28 13:19:06;;;;;;;11.50;6.87;;;3.00;99.90;;;;;;5058099;27;20211;-64
2023/01/28 13:21:35;;;;;;;12.90;7.23;;;3.10;99.90;;;;;;5086906;27;20669;-64
2023/01/28 13:24:18;;;;;;;9.23;6.53;;;3.20;99.90;;;;;;5066583;27;20234;-64
2023/01/28 13:26:47;;;;;;;9.10;6.10;;;3.10;99.90;;;;;;5074325;27;20200;-64
2023/01/28 13:29:32;;;;;;;9.87;6.03;;;3.20;99.90;;;;;;5055848;27;20204;-64
2023/01/28 13:32:01;;;;;;;8.83;6.40;;;3.20;99.90;;;;;;5070386;27;20351;-64
2023/01/28 13:34:35;;;;;;;6.73;5.57;;;3.30;99.90;;;;;;5030014;27;20240;-65